Aeroporto :
LOGIN :

Iscrizione | Disclaimer

   EN    FR    IT 

 










Sommario :    VFR   VFR Marginale   IFR   IFR Intensivo   IFR Molto Intensivo
Visibilità : 
Base nubi : 
>= 8 km
>= 3000ft
5 / 8 km
1000 / 3000 ft
1500m / 5 km
500 / 1000 ft
800 / 1500m
200 / 500 ft
< 800m
< 200 ft
Simboli :   Temporali  Nebbia  Neve Forte  Precipitazioni Forti  Vento > 20 kt
SIGMETs :   Varie  Temporali  Ghiacco  Turbolenza  Onda orograficha  Ceneri Vulcaniche






- Altitudine del aeroporto : 2313 ft
- Codice IATA : OHD


LWOH - Ohrid

ULTIMO METAR :
  • 280830Z 30003KT 9999 SCT040 15/06 Q1020

METARs OBSOLETI :
  • 280730Z 28003KT 9999 SCT040 13/06 Q1021
  • 280700Z 25002KT 9999 SCT040 12/06 Q1021
  • 280630Z 24002KT 9999 BKN040 11/06 Q1021
  • 280600Z 35002KT 9999 BKN040 10/06 Q1021

TAF TAF LWOH
Valido dal 28 a 09 ore il 29 a 09 ore UTC


280830Z 2809/2909 34008KT 9999 BKN040
PROB40
TEMPO 2812/2820 VRB15KT TSRA FEW033CB BKN040



MetMap, La meteo Aeronautica in un colpo d'occhio ! - Copyright ORBIFLY Dicembre 2007 - Disclaimer

ORBIFLY MET'MAP TEAM :

Programmazione e sviluppo : Alexandra Zaïnal
Concezione : Baudouin d'Aumeries
Aiuto per la programmazione : Marc-Olivier Méhu
Supporto tecnico e logistico : Manuel Goepfert
Aiuto per la traduzione : Arnaldo La Scala

Contatto : metmap@orbifly.com




FONTI E CREDITI :

   NOAA